createdAt,value
2019-04-11T00:01:35.922Z,61.30
2019-04-11T00:03:57.717Z,61.40
2019-04-11T00:06:26.330Z,61.60
2019-04-11T00:08:54.771Z,61.70
2019-04-11T00:11:23.925Z,61.70
2019-04-11T00:13:53.604Z,61.70
2019-04-11T00:16:23.386Z,62.00
2019-04-11T00:18:52.315Z,62.10
2019-04-11T00:21:20.759Z,62.00
2019-04-11T00:23:50.199Z,62.40
2019-04-11T00:26:18.867Z,62.40
2019-04-11T00:28:47.987Z,62.30
2019-04-11T00:31:16.810Z,62.30
2019-04-11T00:33:46.565Z,62.50
2019-04-11T00:36:15.107Z,62.70
2019-04-11T00:38:43.573Z,62.70
2019-04-11T00:41:12.046Z,62.80
2019-04-11T00:43:43.634Z,62.90
2019-04-11T00:46:11.944Z,63.00
2019-04-11T00:48:41.760Z,63.10
2019-04-11T00:51:11.828Z,63.20
2019-04-11T00:53:40.379Z,63.30
2019-04-11T00:56:09.745Z,63.50
2019-04-11T00:58:39.236Z,63.60
2019-04-11T01:01:07.763Z,63.80
2019-04-11T01:03:36.281Z,63.70
2019-04-11T01:06:05.781Z,63.80
2019-04-11T01:08:35.613Z,63.90
2019-04-11T01:11:05.932Z,64.00
2019-04-11T01:13:44.599Z,64.30
2019-04-11T01:16:09.117Z,64.40
2019-04-11T01:18:40.346Z,64.60
2019-04-11T01:21:10.229Z,64.60
2019-04-11T01:23:39.475Z,64.90
2019-04-11T01:26:08.728Z,65.00
2019-04-11T01:28:37.316Z,65.10
2019-04-11T01:31:07.628Z,65.40
2019-04-11T01:33:36.143Z,65.50
2019-04-11T01:36:04.944Z,65.60
2019-04-11T01:38:38.673Z,65.80
2019-04-11T01:41:07.732Z,65.80
2019-04-11T01:43:36.169Z,66.10
2019-04-11T01:46:05.689Z,65.90
2019-04-11T01:48:36.011Z,66.20
2019-04-11T01:51:05.371Z,66.40
2019-04-11T01:53:35.169Z,66.50
2019-04-11T01:56:05.556Z,66.20
2019-04-11T01:58:35.025Z,66.50
2019-04-11T02:01:12.632Z,66.60
2019-04-11T02:03:49.748Z,67.00
2019-04-11T02:06:18.581Z,66.70
2019-04-11T02:08:47.252Z,66.80
2019-04-11T02:11:17.100Z,66.70
2019-04-11T02:13:46.012Z,66.90
2019-04-11T02:16:14.680Z,66.90
2019-04-11T02:18:43.685Z,67.00
2019-04-11T02:21:13.631Z,66.90
2019-04-11T02:24:03.597Z,67.00
2019-04-11T02:26:37.718Z,67.00
2019-04-11T02:29:06.543Z,66.90
2019-04-11T02:31:36.780Z,67.00
2019-04-11T02:34:08.383Z,67.10
2019-04-11T02:36:38.398Z,67.20
2019-04-11T02:39:12.890Z,67.30
2019-04-11T02:41:42.190Z,67.30
2019-04-11T02:44:28.645Z,67.60
2019-04-11T02:46:50.379Z,67.50
2019-04-11T02:49:11.549Z,67.60
2019-04-11T02:51:40.638Z,67.60
2019-04-11T02:54:09.172Z,67.90
2019-04-11T02:56:37.888Z,68.00
2019-04-11T02:59:08.896Z,68.00
2019-04-11T03:01:37.790Z,68.00
2019-04-11T03:04:07.422Z,68.10
2019-04-11T03:06:36.195Z,68.20
2019-04-11T03:09:07.038Z,68.30
2019-04-11T03:11:36.428Z,68.30
2019-04-11T03:14:07.454Z,68.60
2019-04-11T03:16:49.284Z,68.90
2019-04-11T03:19:21.113Z,69.20
2019-04-11T03:21:41.276Z,69.20
2019-04-11T03:24:10.709Z,69.50
2019-04-11T03:26:38.637Z,69.50
2019-04-11T03:29:08.752Z,69.80
2019-04-11T03:35:02.933Z,70.10
2019-04-11T03:39:29.007Z,70.30
2019-04-11T03:41:56.570Z,70.40
2019-04-11T03:44:20.537Z,70.40
2019-04-11T03:46:53.950Z,70.60
2019-04-11T03:49:24.653Z,70.50
2019-04-11T03:51:45.005Z,70.60
2019-04-11T03:54:15.607Z,70.70
2019-04-11T03:56:45.830Z,70.60
2019-04-11T03:59:16.567Z,70.70
2019-04-11T04:01:46.585Z,70.80
2019-04-11T04:04:17.722Z,70.80
2019-04-11T04:06:47.640Z,70.70
2019-04-11T04:09:17.064Z,70.80
2019-04-11T04:11:49.373Z,70.80
2019-04-11T04:14:32.598Z,70.80
2019-04-11T04:17:21.274Z,71.10
2019-04-11T04:19:59.399Z,71.10
2019-04-11T04:22:31.436Z,71.10
2019-04-11T04:25:01.091Z,71.40
2019-04-11T04:27:32.721Z,71.40
2019-04-11T04:30:05.114Z,71.30
2019-04-11T04:32:33.063Z,71.70
2019-04-11T04:35:01.877Z,71.70
2019-04-11T04:37:34.092Z,71.70
2019-04-11T04:40:23.991Z,71.60
2019-04-11T04:42:40.196Z,71.90
2019-04-11T04:45:09.015Z,72.00
2019-04-11T04:47:46.194Z,72.10
2019-04-11T04:50:08.775Z,72.20
2019-04-11T04:52:38.213Z,72.20
2019-04-11T04:55:08.591Z,72.50
2019-04-11T04:57:37.751Z,72.80
2019-04-11T05:00:09.223Z,72.40
2019-04-11T05:02:39.647Z,72.60
2019-04-11T05:05:09.489Z,72.50
2019-04-11T05:07:40.848Z,72.80
2019-04-11T05:10:09.155Z,73.00
2019-04-11T05:12:38.819Z,72.90
2019-04-11T05:15:10.321Z,73.20
2019-04-11T05:17:40.425Z,73.00
2019-04-11T05:20:09.321Z,73.20
2019-04-11T05:22:37.814Z,73.10
2019-04-11T05:25:06.753Z,73.30
2019-04-11T05:27:35.791Z,73.10
2019-04-11T05:30:05.603Z,73.20
2019-04-11T05:32:34.137Z,73.20
2019-04-11T05:35:06.942Z,73.30
2019-04-11T05:37:36.331Z,73.60
2019-04-11T05:40:09.293Z,73.50
2019-04-11T05:42:37.896Z,73.70
2019-04-11T05:45:11.602Z,73.80
2019-04-11T05:47:37.328Z,73.70
2019-04-11T05:50:11.992Z,73.80
2019-04-11T05:52:39.995Z,73.80
2019-04-11T05:55:13.551Z,73.70
2019-04-11T05:57:43.056Z,73.80
2019-04-11T06:00:23.497Z,74.00
2019-04-11T06:02:57.541Z,73.90
2019-04-11T06:05:32.529Z,73.90
2019-04-11T06:08:00.441Z,73.80
2019-04-11T06:10:46.837Z,73.70
2019-04-11T06:13:20.998Z,73.70
2019-04-11T06:16:02.621Z,73.60
2019-04-11T06:18:46.632Z,73.50
2019-04-11T06:21:22.043Z,73.50
2019-04-11T06:24:04.535Z,73.30
2019-04-11T06:26:34.700Z,73.30
2019-04-11T06:29:14.776Z,73.30
2019-04-11T06:31:45.707Z,73.20
2019-04-11T06:34:15.467Z,73.20
2019-04-11T06:36:46.903Z,73.00
2019-04-11T06:39:33.985Z,72.90
2019-04-11T06:42:05.859Z,72.80
2019-04-11T06:44:43.220Z,72.70
2019-04-11T06:47:13.457Z,72.60
2019-04-11T06:49:53.017Z,72.40
2019-04-11T06:52:24.443Z,72.30
2019-04-11T06:55:12.771Z,72.20
2019-04-11T06:57:43.004Z,72.00
2019-04-11T07:00:14.857Z,71.80
2019-04-11T07:02:48.679Z,71.60
2019-04-11T07:05:18.331Z,71.60
2019-04-11T07:07:51.653Z,71.40
2019-04-11T07:10:26.435Z,71.20
2019-04-11T07:13:00.681Z,71.00
2019-04-11T07:15:31.551Z,70.80
2019-04-11T07:18:18.353Z,70.70
2019-04-11T07:20:52.365Z,70.40
2019-04-11T07:23:39.049Z,70.40
2019-04-11T07:26:25.120Z,70.20
2019-04-11T07:28:56.483Z,69.90
2019-04-11T07:31:44.230Z,69.70
2019-04-11T07:34:33.959Z,69.30
2019-04-11T07:37:06.826Z,69.00
2019-04-11T07:39:53.875Z,68.90
2019-04-11T07:42:41.130Z,68.30
2019-04-11T07:45:17.396Z,67.70
2019-04-11T07:47:50.416Z,67.40
2019-04-11T07:50:19.880Z,67.20
2019-04-11T07:52:54.239Z,66.70
2019-04-11T07:55:24.167Z,66.50
2019-04-11T07:57:54.693Z,65.90
2019-04-11T08:00:36.582Z,65.40
2019-04-11T08:02:59.788Z,65.00
2019-04-11T08:05:46.684Z,64.90
2019-04-11T08:08:30.138Z,64.20
2019-04-11T08:11:06.682Z,63.50
2019-04-11T08:13:39.404Z,62.70
2019-04-11T08:16:26.727Z,62.90
2019-04-11T08:19:01.370Z,63.60
2019-04-11T08:21:35.726Z,62.00
2019-04-11T08:24:07.820Z,61.90
2019-04-11T08:26:50.586Z,62.20
2019-04-11T08:29:22.200Z,60.80
2019-04-11T08:32:09.639Z,60.20
2019-04-11T08:34:46.139Z,59.80
2019-04-11T08:37:34.112Z,59.20
2019-04-11T08:40:04.502Z,58.60
2019-04-11T08:42:50.920Z,58.70
2019-04-11T08:45:21.585Z,58.30
2019-04-11T08:47:55.655Z,58.10
2019-04-11T08:50:23.830Z,57.30
2019-04-11T08:52:56.488Z,56.00
2019-04-11T08:55:27.355Z,55.70
2019-04-11T08:57:58.317Z,54.90
2019-04-11T09:00:38.092Z,54.50
2019-04-11T09:03:18.040Z,54.60
2019-04-11T09:05:54.060Z,54.00
2019-04-11T09:08:30.171Z,52.70
2019-04-11T09:11:17.028Z,51.10
2019-04-11T09:13:51.897Z,51.10
2019-04-11T09:16:37.455Z,51.50
2019-04-11T09:19:20.959Z,51.00
2019-04-11T09:22:08.774Z,50.90
2019-04-11T09:24:41.530Z,50.60
2019-04-11T09:27:25.101Z,49.60
2019-04-11T09:30:09.802Z,49.30
2019-04-11T09:32:56.232Z,48.70
2019-04-11T09:35:33.387Z,48.70
2019-04-11T09:38:04.384Z,48.20
2019-04-11T09:40:41.635Z,48.10
2019-04-11T09:43:19.863Z,47.70
2019-04-11T09:45:51.429Z,47.60
2019-04-11T09:48:37.924Z,47.20
2019-04-11T09:51:26.455Z,47.30
2019-04-11T09:54:05.950Z,46.90
2019-04-11T09:57:13.327Z,46.30
2019-04-11T09:59:43.566Z,44.90
2019-04-11T10:02:31.089Z,44.50
2019-04-11T10:05:02.609Z,45.10
2019-04-11T10:07:42.593Z,46.00
2019-04-11T10:10:19.051Z,45.00
2019-04-11T10:12:49.546Z,45.00
2019-04-11T10:15:20.961Z,45.20
2019-04-11T10:18:19.578Z,45.30
2019-04-11T10:20:40.497Z,44.30
2019-04-11T10:23:10.721Z,44.70
2019-04-11T10:25:40.590Z,44.30
2019-04-11T10:28:19.839Z,43.90
2019-04-11T10:31:02.470Z,43.70
2019-04-11T10:33:41.728Z,44.00
2019-04-11T10:36:12.632Z,43.80
2019-04-11T10:38:41.093Z,44.00
2019-04-11T10:41:23.072Z,44.30
2019-04-11T10:43:53.783Z,43.90
2019-04-11T10:46:40.328Z,43.10
2019-04-11T10:49:22.262Z,43.40
2019-04-11T10:51:58.189Z,42.80
2019-04-11T10:54:29.686Z,42.90
2019-04-11T10:57:13.837Z,42.60
2019-04-11T10:59:44.931Z,42.70
2019-04-11T11:02:18.099Z,42.20
2019-04-11T11:04:48.493Z,41.60
2019-04-11T11:07:18.396Z,40.60
2019-04-11T11:09:48.896Z,40.50
2019-04-11T11:12:27.950Z,39.70
2019-04-11T11:15:07.300Z,39.70
2019-04-11T11:18:24.034Z,39.20
2019-04-11T11:20:41.526Z,39.10
2019-04-11T11:23:18.327Z,38.30
2019-04-11T11:25:50.462Z,37.90
2019-04-11T11:28:26.762Z,37.70
2019-04-11T11:31:12.061Z,37.90
2019-04-11T11:33:42.673Z,37.40
2019-04-11T11:36:33.100Z,37.10
2019-04-11T11:39:02.445Z,37.30
2019-04-11T11:41:48.975Z,36.40
2019-04-11T11:44:19.492Z,36.50
2019-04-11T11:46:55.519Z,36.00
2019-04-11T11:49:42.415Z,35.90
2019-04-11T11:51:58.433Z,36.00
2019-04-11T11:54:29.499Z,36.20
2019-04-11T11:57:00.594Z,35.60
2019-04-11T11:59:34.473Z,35.80
2019-04-11T12:02:10.672Z,35.80
2019-04-11T12:04:44.309Z,35.80
2019-04-11T12:07:14.754Z,36.30
2019-04-11T12:10:01.077Z,35.60
2019-04-11T12:12:36.185Z,35.80
2019-04-11T12:15:07.750Z,35.90
2019-04-11T12:17:54.703Z,35.50
2019-04-11T12:20:25.191Z,35.80
2019-04-11T12:22:54.159Z,35.40
2019-04-11T12:25:41.131Z,35.30
2019-04-11T12:28:15.263Z,34.80
2019-04-11T12:30:45.560Z,34.60
2019-04-11T12:33:19.368Z,34.60
2019-04-11T12:35:52.732Z,34.60
2019-04-11T12:38:39.011Z,34.10
2019-04-11T12:41:11.964Z,34.20
2019-04-11T12:44:01.648Z,34.30
2019-04-11T12:46:47.893Z,34.30
2019-04-11T12:49:23.520Z,34.20
2019-04-11T12:52:09.945Z,35.00
2019-04-11T12:54:42.565Z,34.00
2019-04-11T12:57:24.649Z,34.10
2019-04-11T13:00:06.604Z,34.60
2019-04-11T13:02:42.000Z,34.30
2019-04-11T13:05:12.246Z,34.40
2019-04-11T13:07:42.456Z,34.20
2019-04-11T13:10:14.012Z,34.80
2019-04-11T13:12:52.393Z,34.60
2019-04-11T13:15:30.332Z,34.20
2019-04-11T13:18:00.455Z,34.20
2019-04-11T13:20:42.325Z,34.30
2019-04-11T13:23:13.627Z,33.50
2019-04-11T13:25:59.954Z,33.50
2019-04-11T13:28:30.113Z,33.50
2019-04-11T13:31:16.704Z,33.60
2019-04-11T13:33:46.052Z,33.40
2019-04-11T13:36:32.379Z,33.20
2019-04-11T13:39:03.110Z,32.90
2019-04-11T13:41:32.833Z,32.90
2019-04-11T13:44:02.785Z,32.90
2019-04-11T13:46:36.902Z,32.60
2019-04-11T13:49:23.179Z,32.20
2019-04-11T13:51:56.376Z,32.30
2019-04-11T13:54:41.576Z,32.30
2019-04-11T13:57:26.705Z,32.60
2019-04-11T14:00:13.758Z,32.00
2019-04-11T14:02:51.399Z,32.20
2019-04-11T14:05:20.242Z,32.30
2019-04-11T14:07:52.133Z,31.80
2019-04-11T14:10:23.284Z,32.10
2019-04-11T14:12:53.380Z,31.50
2019-04-11T14:15:23.119Z,30.90
2019-04-11T14:17:56.024Z,30.10
2019-04-11T14:20:32.861Z,30.10
2019-04-11T14:23:03.109Z,30.50
2019-04-11T14:25:49.585Z,30.50
2019-04-11T14:28:19.752Z,30.70
2019-04-11T14:31:05.172Z,30.20
2019-04-11T14:33:35.359Z,30.00
2019-04-11T14:36:32.866Z,29.10
2019-04-11T14:38:54.711Z,29.10
2019-04-11T14:41:42.605Z,28.50
2019-04-11T14:44:11.053Z,28.30
2019-04-11T14:46:57.894Z,28.10
2019-04-11T14:49:27.804Z,28.50
2019-04-11T14:51:58.714Z,28.50
2019-04-11T14:54:30.091Z,28.60
2019-04-11T14:57:07.615Z,28.30
2019-04-11T14:59:38.466Z,28.40
2019-04-11T15:02:19.018Z,27.50
2019-04-11T15:04:49.854Z,27.00
2019-04-11T15:07:21.195Z,27.70
2019-04-11T15:09:57.629Z,27.80
2019-04-11T15:12:31.107Z,27.20
2019-04-11T15:15:19.297Z,26.20
2019-04-11T15:17:55.555Z,25.50
2019-04-11T15:20:27.939Z,25.30
2019-04-11T15:23:09.065Z,25.50
2019-04-11T15:25:44.924Z,26.10
2019-04-11T15:28:33.031Z,26.70
2019-04-11T15:31:19.808Z,27.40
2019-04-11T15:33:50.068Z,28.10
2019-04-11T15:36:21.460Z,28.50
2019-04-11T15:38:54.317Z,28.50
2019-04-11T15:41:22.770Z,28.80
2019-04-11T15:44:09.035Z,29.80
2019-04-11T15:46:39.157Z,28.70
2019-04-11T15:49:30.306Z,27.50
2019-04-11T15:51:56.204Z,26.70
2019-04-11T15:54:39.343Z,26.50
2019-04-11T15:57:12.736Z,25.90
2019-04-11T15:59:44.026Z,25.10
2019-04-11T16:02:23.854Z,24.40
2019-04-11T16:05:01.904Z,23.40
2019-04-11T16:07:40.465Z,23.30
2019-04-11T16:10:11.887Z,22.70
2019-04-11T16:12:52.236Z,22.60
2019-04-11T16:15:23.338Z,22.10
2019-04-11T16:17:53.629Z,22.10
2019-04-11T16:20:27.059Z,21.90
2019-04-11T16:23:06.509Z,21.50
2019-04-11T16:25:35.457Z,21.50
2019-04-11T16:28:21.760Z,21.30
2019-04-11T16:30:51.991Z,21.20
2019-04-11T16:33:34.095Z,21.00
2019-04-11T16:36:10.008Z,21.20
2019-04-11T16:38:52.029Z,21.10
2019-04-11T16:41:25.362Z,20.60
2019-04-11T16:43:55.519Z,20.70
2019-04-11T16:46:41.216Z,20.70
2019-04-11T16:49:09.874Z,21.10
2019-04-11T16:51:39.805Z,20.80
2019-04-11T16:54:09.766Z,20.60
2019-04-11T16:56:38.648Z,20.40
2019-04-11T16:59:07.657Z,20.40
2019-04-11T17:01:36.355Z,21.10
2019-04-11T17:04:04.946Z,21.20
2019-04-11T17:06:41.077Z,21.10
2019-04-11T17:09:27.192Z,21.00
2019-04-11T17:11:58.089Z,20.80
2019-04-11T17:14:28.138Z,21.00
2019-04-11T17:17:00.661Z,21.10
2019-04-11T17:19:27.119Z,21.10
2019-04-11T17:21:55.618Z,21.30
2019-04-11T17:24:24.807Z,21.40
2019-04-11T17:26:53.420Z,21.50
2019-04-11T17:29:24.660Z,21.10
2019-04-11T17:31:55.650Z,21.20
2019-04-11T17:34:22.686Z,21.40
2019-04-11T17:36:51.154Z,21.80
2019-04-11T17:39:19.629Z,22.60
2019-04-11T17:41:49.451Z,22.90
2019-04-11T17:44:17.938Z,23.30
2019-04-11T17:46:46.389Z,23.80
2019-04-11T17:49:14.851Z,24.20
2019-04-11T17:51:55.355Z,24.50
2019-04-11T17:54:15.367Z,24.60
2019-04-11T17:56:43.849Z,24.90
2019-04-11T17:59:12.409Z,25.20
2019-04-11T18:01:41.036Z,25.20
2019-04-11T18:04:13.238Z,25.40
2019-04-11T18:06:39.710Z,25.80
2019-04-11T18:09:11.057Z,26.20
2019-04-11T18:11:40.036Z,26.70
2019-04-11T18:14:08.648Z,27.00
2019-04-11T18:16:38.816Z,27.40
2019-04-11T18:19:09.686Z,27.90
2019-04-11T18:21:37.713Z,28.40
2019-04-11T18:24:06.491Z,28.80
2019-04-11T18:26:35.088Z,29.30
2019-04-11T18:29:04.540Z,29.80
2019-04-11T18:31:33.346Z,30.50
2019-04-11T18:34:02.612Z,31.40
2019-04-11T18:36:32.042Z,32.20
2019-04-11T18:39:05.617Z,33.10
2019-04-11T18:41:31.526Z,33.80
2019-04-11T18:43:59.985Z,34.30
2019-04-11T18:46:28.530Z,35.20
2019-04-11T18:48:57.084Z,35.40
2019-04-11T18:51:25.691Z,35.70
2019-04-11T18:53:54.251Z,35.90
2019-04-11T18:56:22.801Z,36.20
2019-04-11T18:58:51.297Z,36.50
2019-04-11T19:01:20.081Z,36.80
2019-04-11T19:03:48.740Z,37.10
2019-04-11T19:06:27.447Z,36.90
2019-04-11T19:08:47.585Z,37.10
2019-04-11T19:11:16.351Z,37.30
2019-04-11T19:13:47.023Z,37.30
2019-04-11T19:16:16.100Z,37.30
2019-04-11T19:18:47.698Z,37.90
2019-04-11T19:21:20.071Z,38.20
2019-04-11T19:23:46.231Z,38.80
2019-04-11T19:26:15.327Z,39.30
2019-04-11T19:28:43.893Z,39.70
2019-04-11T19:31:12.566Z,40.10
2019-04-11T19:33:41.111Z,41.40
2019-04-11T19:36:10.013Z,41.60
2019-04-11T19:38:43.054Z,42.30
2019-04-11T19:41:10.885Z,42.50
2019-04-11T19:43:40.951Z,43.30
2019-04-11T19:46:09.583Z,43.70
2019-04-11T19:48:38.108Z,44.00
2019-04-11T19:51:06.650Z,44.40
2019-04-11T19:53:36.076Z,44.60
2019-04-11T19:56:11.929Z,45.20
2019-04-11T19:58:40.467Z,45.30
2019-04-11T20:01:09.027Z,45.10
2019-04-11T20:03:37.507Z,45.30
2019-04-11T20:06:06.091Z,45.40
2019-04-11T20:08:34.761Z,45.60
2019-04-11T20:11:03.383Z,45.50
2019-04-11T20:13:32.309Z,45.70
2019-04-11T20:16:01.590Z,45.60
2019-04-11T20:18:30.133Z,45.70
2019-04-11T20:20:58.955Z,46.00
2019-04-11T20:23:27.569Z,45.90
2019-04-11T20:25:56.120Z,46.20
2019-04-11T20:28:26.672Z,46.40
2019-04-11T20:30:54.900Z,46.70
2019-04-11T20:33:27.465Z,46.90
2019-04-11T20:35:53.727Z,46.90
2019-04-11T20:38:23.865Z,46.90
2019-04-11T20:40:53.832Z,47.00
2019-04-11T20:43:24.992Z,47.30
2019-04-11T20:45:53.603Z,47.30
2019-04-11T20:48:22.379Z,47.50
2019-04-11T20:50:51.036Z,47.50
2019-04-11T20:53:19.486Z,47.70
2019-04-11T20:55:47.960Z,47.90
2019-04-11T20:58:39.743Z,48.00
2019-04-11T21:01:07.591Z,48.20
2019-04-11T21:03:36.068Z,48.10
2019-04-11T21:06:04.822Z,48.40
2019-04-11T21:08:33.941Z,48.50
2019-04-11T21:11:05.378Z,48.40
2019-04-11T21:13:38.105Z,48.70
2019-04-11T21:16:05.101Z,48.90
2019-04-11T21:18:33.728Z,49.10
2019-04-11T21:21:02.182Z,49.00
2019-04-11T21:23:30.657Z,49.10
2019-04-11T21:25:59.687Z,49.30
2019-04-11T21:28:30.299Z,49.30
2019-04-11T21:31:00.135Z,49.50
2019-04-11T21:33:29.210Z,49.50
2019-04-11T21:35:57.763Z,49.50
2019-04-11T21:38:28.079Z,49.60
2019-04-11T21:40:56.370Z,49.60
2019-04-11T21:43:44.200Z,49.70
2019-04-11T21:46:12.680Z,49.90
2019-04-11T21:48:41.131Z,50.00
2019-04-11T21:51:11.387Z,50.20
2019-04-11T21:53:44.216Z,50.20
2019-04-11T21:56:10.258Z,50.50
2019-04-11T21:58:38.700Z,50.80
2019-04-11T22:01:10.319Z,51.50
2019-04-11T22:03:38.990Z,51.10
2019-04-11T22:06:07.641Z,51.20
2019-04-11T22:08:36.115Z,51.50
2019-04-11T22:11:09.822Z,51.50
2019-04-11T22:13:38.011Z,51.70
2019-04-11T22:16:07.422Z,51.90
2019-04-11T22:18:37.498Z,52.20
2019-04-11T22:21:07.659Z,52.30
2019-04-11T22:23:48.108Z,52.40
2019-04-11T22:26:06.340Z,52.50
2019-04-11T22:28:37.540Z,52.70
2019-04-11T22:31:06.092Z,52.80
2019-04-11T22:33:39.618Z,52.90
2019-04-11T22:36:07.367Z,53.20
2019-04-11T22:38:35.831Z,53.50
2019-04-11T22:41:04.703Z,53.00
2019-04-11T22:43:33.170Z,53.20
2019-04-11T22:46:01.731Z,53.20
2019-04-11T22:48:30.265Z,53.30
2019-04-11T22:50:58.854Z,53.30
2019-04-11T22:53:27.467Z,53.90
2019-04-11T22:55:56.934Z,53.30
2019-04-11T22:58:25.373Z,53.40
2019-04-11T23:00:54.016Z,53.60
2019-04-11T23:03:28.077Z,53.70
2019-04-11T23:05:56.640Z,53.90
2019-04-11T23:08:25.527Z,53.70
2019-04-11T23:10:54.581Z,53.90
2019-04-11T23:13:23.614Z,54.00
2019-04-11T23:15:52.409Z,54.20
2019-04-11T23:18:20.962Z,54.20
2019-04-11T23:20:49.515Z,54.30
2019-04-11T23:23:18.051Z,54.50
2019-04-11T23:25:48.643Z,54.40
2019-04-11T23:28:17.084Z,54.60
2019-04-11T23:30:49.566Z,54.70
2019-04-11T23:33:15.722Z,54.70
2019-04-11T23:35:44.210Z,54.70
2019-04-11T23:38:12.736Z,54.80
2019-04-11T23:40:41.216Z,55.60
2019-04-11T23:43:10.326Z,55.00
2019-04-11T23:45:38.797Z,55.20
2019-04-11T23:48:08.838Z,55.30
2019-04-11T23:50:37.428Z,55.50
2019-04-11T23:53:05.902Z,55.50
2019-04-11T23:55:34.546Z,55.50
2019-04-11T23:58:03.003Z,55.50
